sensor_id;sensor_type;location;lat;lon;timestamp;temperature;humidity
19437;DHT22;9854;50.968;4.168;2024-01-15T00:01:27;3.00;99.90
19437;DHT22;9854;50.968;4.168;2024-01-15T00:03:52;3.00;99.90
19437;DHT22;9854;50.968;4.168;2024-01-15T00:06:18;3.10;99.90
19437;DHT22;9854;50.968;4.168;2024-01-15T00:08:44;3.10;99.90
19437;DHT22;9854;50.968;4.168;2024-01-15T00:11:11;3.00;99.90
19437;DHT22;9854;50.968;4.168;2024-01-15T00:13:37;3.00;99.90
19437;DHT22;9854;50.968;4.168;2024-01-15T00:16:04;3.00;99.90
19437;DHT22;9854;50.968;4.168;2024-01-15T00:18:30;3.10;99.90
19437;DHT22;9854;50.968;4.168;2024-01-15T00:20:55;3.30;99.90
19437;DHT22;9854;50.968;4.168;2024-01-15T00:23:23;3.40;99.90
19437;DHT22;9854;50.968;4.168;2024-01-15T00:25:51;3.40;99.90
19437;DHT22;9854;50.968;4.168;2024-01-15T00:28:17;3.70;99.90
19437;DHT22;9854;50.968;4.168;2024-01-15T00:30:42;3.50;99.90
19437;DHT22;9854;50.968;4.168;2024-01-15T00:33:08;3.50;99.90
19437;DHT22;9854;50.968;4.168;2024-01-15T00:35:34;3.40;99.90
19437;DHT22;9854;50.968;4.168;2024-01-15T00:37:59;3.40;99.90
19437;DHT22;9854;50.968;4.168;2024-01-15T00:40:25;3.40;99.90
19437;DHT22;9854;50.968;4.168;2024-01-15T00:42:51;3.30;99.90
19437;DHT22;9854;50.968;4.168;2024-01-15T00:45:21;3.30;99.90
19437;DHT22;9854;50.968;4.168;2024-01-15T00:47:49;3.30;99.90
19437;DHT22;9854;50.968;4.168;2024-01-15T00:50:15;3.30;99.90
19437;DHT22;9854;50.968;4.168;2024-01-15T00:52:40;3.30;99.90
19437;DHT22;9854;50.968;4.168;2024-01-15T00:55:06;3.30;99.90
19437;DHT22;9854;50.968;4.168;2024-01-15T00:57:32;3.30;99.90
19437;DHT22;9854;50.968;4.168;2024-01-15T01:00:00;3.40;99.90
19437;DHT22;9854;50.968;4.168;2024-01-15T01:02:27;3.50;99.90
19437;DHT22;9854;50.968;4.168;2024-01-15T01:04:55;3.50;99.90
19437;DHT22;9854;50.968;4.168;2024-01-15T01:07:20;3.70;99.90
19437;DHT22;9854;50.968;4.168;2024-01-15T01:09:46;3.50;99.90
19437;DHT22;9854;50.968;4.168;2024-01-15T01:12:13;3.50;99.90
19437;DHT22;9854;50.968;4.168;2024-01-15T01:14:39;3.40;99.90
19437;DHT22;9854;50.968;4.168;2024-01-15T01:17:04;3.40;99.90
19437;DHT22;9854;50.968;4.168;2024-01-15T01:19:32;3.40;99.90
19437;DHT22;9854;50.968;4.168;2024-01-15T01:21:58;3.40;99.90
19437;DHT22;9854;50.968;4.168;2024-01-15T01:24:24;3.40;99.90
19437;DHT22;9854;50.968;4.168;2024-01-15T01:26:49;3.40;99.90
19437;DHT22;9854;50.968;4.168;2024-01-15T01:29:15;3.40;99.90
19437;DHT22;9854;50.968;4.168;2024-01-15T01:31:44;3.50;99.90
19437;DHT22;9854;50.968;4.168;2024-01-15T01:34:10;3.70;99.90
19437;DHT22;9854;50.968;4.168;2024-01-15T01:36:36;3.80;99.90
19437;DHT22;9854;50.968;4.168;2024-01-15T01:39:02;3.70;99.90
19437;DHT22;9854;50.968;4.168;2024-01-15T01:41:27;3.70;99.90
19437;DHT22;9854;50.968;4.168;2024-01-15T01:43:53;3.90;99.90
19437;DHT22;9854;50.968;4.168;2024-01-15T01:46:21;3.90;99.90
19437;DHT22;9854;50.968;4.168;2024-01-15T01:48:49;3.90;99.90
19437;DHT22;9854;50.968;4.168;2024-01-15T01:51:17;3.80;99.90
19437;DHT22;9854;50.968;4.168;2024-01-15T01:53:44;3.70;99.90
19437;DHT22;9854;50.968;4.168;2024-01-15T01:56:12;3.60;99.90
19437;DHT22;9854;50.968;4.168;2024-01-15T01:58:39;3.60;99.90
19437;DHT22;9854;50.968;4.168;2024-01-15T02:01:05;3.50;99.90
19437;DHT22;9854;50.968;4.168;2024-01-15T02:03:31;3.40;99.90
19437;DHT22;9854;50.968;4.168;2024-01-15T02:05:59;3.50;99.90
19437;DHT22;9854;50.968;4.168;2024-01-15T02:08:25;3.60;99.90
19437;DHT22;9854;50.968;4.168;2024-01-15T02:10:51;3.70;99.90
19437;DHT22;9854;50.968;4.168;2024-01-15T02:13:20;3.60;99.90
19437;DHT22;9854;50.968;4.168;2024-01-15T02:15:46;3.50;99.90
19437;DHT22;9854;50.968;4.168;2024-01-15T02:18:11;3.40;99.90
19437;DHT22;9854;50.968;4.168;2024-01-15T02:20:37;3.60;99.90
19437;DHT22;9854;50.968;4.168;2024-01-15T02:23:13;3.60;99.90
19437;DHT22;9854;50.968;4.168;2024-01-15T02:25:43;3.40;99.90
19437;DHT22;9854;50.968;4.168;2024-01-15T02:28:12;3.70;99.90
19437;DHT22;9854;50.968;4.168;2024-01-15T02:30:41;3.80;99.90
19437;DHT22;9854;50.968;4.168;2024-01-15T02:33:08;3.90;99.90
19437;DHT22;9854;50.968;4.168;2024-01-15T02:35:36;3.90;99.90
19437;DHT22;9854;50.968;4.168;2024-01-15T02:38:05;3.70;99.90
19437;DHT22;9854;50.968;4.168;2024-01-15T02:40:31;3.70;99.90
19437;DHT22;9854;50.968;4.168;2024-01-15T02:42:57;3.70;99.90
19437;DHT22;9854;50.968;4.168;2024-01-15T02:45:22;3.70;99.90
19437;DHT22;9854;50.968;4.168;2024-01-15T02:47:50;3.60;99.90
19437;DHT22;9854;50.968;4.168;2024-01-15T02:50:16;3.50;99.90
19437;DHT22;9854;50.968;4.168;2024-01-15T02:52:42;3.40;99.90
19437;DHT22;9854;50.968;4.168;2024-01-15T02:55:10;3.70;99.90
19437;DHT22;9854;50.968;4.168;2024-01-15T02:57:36;3.80;99.90
19437;DHT22;9854;50.968;4.168;2024-01-15T03:00:02;3.70;99.90
19437;DHT22;9854;50.968;4.168;2024-01-15T03:02:29;3.70;99.90
19437;DHT22;9854;50.968;4.168;2024-01-15T03:04:59;3.70;99.90
19437;DHT22;9854;50.968;4.168;2024-01-15T03:07:28;3.60;99.90
19437;DHT22;9854;50.968;4.168;2024-01-15T03:09:54;3.70;99.90
19437;DHT22;9854;50.968;4.168;2024-01-15T03:12:19;3.70;99.90
19437;DHT22;9854;50.968;4.168;2024-01-15T03:14:45;3.70;99.90
19437;DHT22;9854;50.968;4.168;2024-01-15T03:17:11;3.80;99.90
19437;DHT22;9854;50.968;4.168;2024-01-15T03:19:39;3.70;99.90
19437;DHT22;9854;50.968;4.168;2024-01-15T03:22:04;3.60;99.90
19437;DHT22;9854;50.968;4.168;2024-01-15T03:24:34;3.80;99.90
19437;DHT22;9854;50.968;4.168;2024-01-15T03:27:02;3.90;99.90
19437;DHT22;9854;50.968;4.168;2024-01-15T03:29:28;3.70;99.90
19437;DHT22;9854;50.968;4.168;2024-01-15T03:31:53;3.60;99.90
19437;DHT22;9854;50.968;4.168;2024-01-15T03:34:19;3.70;99.90
19437;DHT22;9854;50.968;4.168;2024-01-15T03:36:47;3.70;99.90
19437;DHT22;9854;50.968;4.168;2024-01-15T03:39:13;3.70;99.90
19437;DHT22;9854;50.968;4.168;2024-01-15T03:41:39;3.70;99.90
19437;DHT22;9854;50.968;4.168;2024-01-15T03:44:04;3.80;99.90
19437;DHT22;9854;50.968;4.168;2024-01-15T03:46:30;3.60;99.90
19437;DHT22;9854;50.968;4.168;2024-01-15T03:48:56;3.60;99.90
19437;DHT22;9854;50.968;4.168;2024-01-15T03:51:22;3.50;99.90
19437;DHT22;9854;50.968;4.168;2024-01-15T03:53:48;3.70;99.90
19437;DHT22;9854;50.968;4.168;2024-01-15T03:56:14;3.70;99.90
19437;DHT22;9854;50.968;4.168;2024-01-15T03:58:39;3.70;99.90
19437;DHT22;9854;50.968;4.168;2024-01-15T04:01:11;3.60;99.90
19437;DHT22;9854;50.968;4.168;2024-01-15T04:03:37;3.50;99.90
19437;DHT22;9854;50.968;4.168;2024-01-15T04:06:03;3.50;99.90
19437;DHT22;9854;50.968;4.168;2024-01-15T04:08:31;3.60;99.90
19437;DHT22;9854;50.968;4.168;2024-01-15T04:10:57;3.50;99.90
19437;DHT22;9854;50.968;4.168;2024-01-15T04:13:22;3.40;99.90
19437;DHT22;9854;50.968;4.168;2024-01-15T04:15:48;3.50;99.90
19437;DHT22;9854;50.968;4.168;2024-01-15T04:18:16;3.40;99.90
19437;DHT22;9854;50.968;4.168;2024-01-15T04:20:44;3.50;99.90
19437;DHT22;9854;50.968;4.168;2024-01-15T04:23:10;3.40;99.90
19437;DHT22;9854;50.968;4.168;2024-01-15T04:25:36;3.70;99.90
19437;DHT22;9854;50.968;4.168;2024-01-15T04:28:04;3.80;99.90
19437;DHT22;9854;50.968;4.168;2024-01-15T04:30:30;3.70;99.90
19437;DHT22;9854;50.968;4.168;2024-01-15T04:32:57;3.80;99.90
19437;DHT22;9854;50.968;4.168;2024-01-15T04:35:23;3.80;99.90
19437;DHT22;9854;50.968;4.168;2024-01-15T04:37:51;3.70;99.90
19437;DHT22;9854;50.968;4.168;2024-01-15T04:40:17;3.70;99.90
19437;DHT22;9854;50.968;4.168;2024-01-15T04:42:43;3.60;99.90
19437;DHT22;9854;50.968;4.168;2024-01-15T04:45:11;3.50;99.90
19437;DHT22;9854;50.968;4.168;2024-01-15T04:47:37;3.50;99.90
19437;DHT22;9854;50.968;4.168;2024-01-15T04:50:04;3.40;99.90
19437;DHT22;9854;50.968;4.168;2024-01-15T04:52:29;3.40;99.90
19437;DHT22;9854;50.968;4.168;2024-01-15T04:54:55;3.30;99.90
19437;DHT22;9854;50.968;4.168;2024-01-15T04:57:21;3.40;99.90
19437;DHT22;9854;50.968;4.168;2024-01-15T04:59:49;3.30;99.90
19437;DHT22;9854;50.968;4.168;2024-01-15T05:02:14;3.40;99.90
19437;DHT22;9854;50.968;4.168;2024-01-15T05:04:40;3.30;99.90
19437;DHT22;9854;50.968;4.168;2024-01-15T05:07:05;3.30;99.90
19437;DHT22;9854;50.968;4.168;2024-01-15T05:09:31;3.50;99.90
19437;DHT22;9854;50.968;4.168;2024-01-15T05:11:59;3.30;99.90
19437;DHT22;9854;50.968;4.168;2024-01-15T05:14:27;3.20;99.90
19437;DHT22;9854;50.968;4.168;2024-01-15T05:16:52;3.30;99.90
19437;DHT22;9854;50.968;4.168;2024-01-15T05:19:21;3.20;99.90
19437;DHT22;9854;50.968;4.168;2024-01-15T05:21:48;3.10;99.90
19437;DHT22;9854;50.968;4.168;2024-01-15T05:24:14;3.20;99.90
19437;DHT22;9854;50.968;4.168;2024-01-15T05:26:40;3.10;99.90
19437;DHT22;9854;50.968;4.168;2024-01-15T05:29:05;3.00;99.90
19437;DHT22;9854;50.968;4.168;2024-01-15T05:31:31;3.10;99.90
19437;DHT22;9854;50.968;4.168;2024-01-15T05:33:59;3.20;99.90
19437;DHT22;9854;50.968;4.168;2024-01-15T05:36:24;3.10;99.90
19437;DHT22;9854;50.968;4.168;2024-01-15T05:38:50;3.20;99.90
19437;DHT22;9854;50.968;4.168;2024-01-15T05:41:16;3.00;99.90
19437;DHT22;9854;50.968;4.168;2024-01-15T05:43:44;2.90;99.90
19437;DHT22;9854;50.968;4.168;2024-01-15T05:46:09;2.80;99.90
19437;DHT22;9854;50.968;4.168;2024-01-15T05:48:35;2.70;99.90
19437;DHT22;9854;50.968;4.168;2024-01-15T05:51:01;2.70;99.90
19437;DHT22;9854;50.968;4.168;2024-01-15T05:53:27;2.70;99.90
19437;DHT22;9854;50.968;4.168;2024-01-15T05:55:53;2.70;99.90
19437;DHT22;9854;50.968;4.168;2024-01-15T05:58:19;2.70;99.90
19437;DHT22;9854;50.968;4.168;2024-01-15T06:00:45;2.60;99.90
19437;DHT22;9854;50.968;4.168;2024-01-15T06:03:11;2.60;99.90
19437;DHT22;9854;50.968;4.168;2024-01-15T06:05:39;2.70;99.90
19437;DHT22;9854;50.968;4.168;2024-01-15T06:08:05;2.80;99.90
19437;DHT22;9854;50.968;4.168;2024-01-15T06:10:31;2.90;99.90
19437;DHT22;9854;50.968;4.168;2024-01-15T06:12:56;2.90;99.90
19437;DHT22;9854;50.968;4.168;2024-01-15T06:15:22;2.80;99.90
19437;DHT22;9854;50.968;4.168;2024-01-15T06:17:50;2.80;99.90
19437;DHT22;9854;50.968;4.168;2024-01-15T06:20:17;2.80;99.90
19437;DHT22;9854;50.968;4.168;2024-01-15T06:22:43;2.70;99.90
19437;DHT22;9854;50.968;4.168;2024-01-15T06:25:11;2.80;99.90
19437;DHT22;9854;50.968;4.168;2024-01-15T06:27:36;2.80;99.90
19437;DHT22;9854;50.968;4.168;2024-01-15T06:30:02;3.10;99.90
19437;DHT22;9854;50.968;4.168;2024-01-15T06:32:28;3.00;99.90
19437;DHT22;9854;50.968;4.168;2024-01-15T06:34:54;2.80;99.90
19437;DHT22;9854;50.968;4.168;2024-01-15T06:37:19;2.80;99.90
19437;DHT22;9854;50.968;4.168;2024-01-15T06:39:45;2.90;99.90
19437;DHT22;9854;50.968;4.168;2024-01-15T06:42:11;2.90;99.90
19437;DHT22;9854;50.968;4.168;2024-01-15T06:44:39;2.80;99.90
19437;DHT22;9854;50.968;4.168;2024-01-15T06:47:05;2.60;99.90
19437;DHT22;9854;50.968;4.168;2024-01-15T06:49:33;2.60;99.90
19437;DHT22;9854;50.968;4.168;2024-01-15T06:52:01;2.50;99.90
19437;DHT22;9854;50.968;4.168;2024-01-15T06:54:27;2.50;99.90
19437;DHT22;9854;50.968;4.168;2024-01-15T06:56:53;2.60;99.90
19437;DHT22;9854;50.968;4.168;2024-01-15T06:59:23;2.60;99.90
19437;DHT22;9854;50.968;4.168;2024-01-15T07:01:48;2.50;99.90
19437;DHT22;9854;50.968;4.168;2024-01-15T07:04:14;2.50;99.90
19437;DHT22;9854;50.968;4.168;2024-01-15T07:06:39;2.50;99.90
19437;DHT22;9854;50.968;4.168;2024-01-15T07:09:07;2.40;99.90
19437;DHT22;9854;50.968;4.168;2024-01-15T07:11:34;2.40;99.90
19437;DHT22;9854;50.968;4.168;2024-01-15T07:14:00;2.40;99.90
19437;DHT22;9854;50.968;4.168;2024-01-15T07:16:25;2.40;99.90
19437;DHT22;9854;50.968;4.168;2024-01-15T07:18:51;2.40;99.90
19437;DHT22;9854;50.968;4.168;2024-01-15T07:21:17;2.40;99.90
19437;DHT22;9854;50.968;4.168;2024-01-15T07:23:44;2.40;99.90
19437;DHT22;9854;50.968;4.168;2024-01-15T07:26:15;2.50;99.90
19437;DHT22;9854;50.968;4.168;2024-01-15T07:28:43;2.60;99.90
19437;DHT22;9854;50.968;4.168;2024-01-15T07:31:11;2.50;99.90
19437;DHT22;9854;50.968;4.168;2024-01-15T07:33:37;2.50;99.90
19437;DHT22;9854;50.968;4.168;2024-01-15T07:36:03;2.50;99.90
19437;DHT22;9854;50.968;4.168;2024-01-15T07:38:29;2.50;99.90
19437;DHT22;9854;50.968;4.168;2024-01-15T07:40:57;2.50;99.90
19437;DHT22;9854;50.968;4.168;2024-01-15T07:43:24;2.50;99.90
19437;DHT22;9854;50.968;4.168;2024-01-15T07:45:50;2.60;99.90
19437;DHT22;9854;50.968;4.168;2024-01-15T07:48:16;2.40;99.90
19437;DHT22;9854;50.968;4.168;2024-01-15T07:50:41;2.40;99.90
19437;DHT22;9854;50.968;4.168;2024-01-15T07:53:07;2.40;99.90
19437;DHT22;9854;50.968;4.168;2024-01-15T07:55:33;2.30;99.90
19437;DHT22;9854;50.968;4.168;2024-01-15T07:57:58;2.30;99.90
19437;DHT22;9854;50.968;4.168;2024-01-15T08:00:27;2.30;99.90
19437;DHT22;9854;50.968;4.168;2024-01-15T08:02:53;2.30;99.90
19437;DHT22;9854;50.968;4.168;2024-01-15T08:05:18;2.30;99.90
19437;DHT22;9854;50.968;4.168;2024-01-15T08:07:44;2.30;99.90
19437;DHT22;9854;50.968;4.168;2024-01-15T08:10:10;2.30;99.90
19437;DHT22;9854;50.968;4.168;2024-01-15T08:12:35;2.30;99.90
19437;DHT22;9854;50.968;4.168;2024-01-15T08:15:01;2.30;99.90
19437;DHT22;9854;50.968;4.168;2024-01-15T08:17:27;2.30;99.90
19437;DHT22;9854;50.968;4.168;2024-01-15T08:19:54;2.30;99.90
19437;DHT22;9854;50.968;4.168;2024-01-15T08:22:20;2.30;99.90
19437;DHT22;9854;50.968;4.168;2024-01-15T08:24:45;2.30;99.90
19437;DHT22;9854;50.968;4.168;2024-01-15T08:27:11;2.30;99.90
19437;DHT22;9854;50.968;4.168;2024-01-15T08:29:37;2.30;99.90
19437;DHT22;9854;50.968;4.168;2024-01-15T08:32:03;2.30;99.90
19437;DHT22;9854;50.968;4.168;2024-01-15T08:34:31;2.30;99.90
19437;DHT22;9854;50.968;4.168;2024-01-15T08:36:57;2.30;99.90
19437;DHT22;9854;50.968;4.168;2024-01-15T08:39:22;2.30;99.90
19437;DHT22;9854;50.968;4.168;2024-01-15T08:41:48;2.30;99.90
19437;DHT22;9854;50.968;4.168;2024-01-15T08:44:13;2.40;99.90
19437;DHT22;9854;50.968;4.168;2024-01-15T08:46:39;2.40;99.90
19437;DHT22;9854;50.968;4.168;2024-01-15T08:49:05;2.40;99.90
19437;DHT22;9854;50.968;4.168;2024-01-15T08:51:33;2.30;99.90
19437;DHT22;9854;50.968;4.168;2024-01-15T08:53:59;2.30;99.90
19437;DHT22;9854;50.968;4.168;2024-01-15T08:56:24;2.40;99.90
19437;DHT22;9854;50.968;4.168;2024-01-15T08:58:50;2.40;99.90
19437;DHT22;9854;50.968;4.168;2024-01-15T09:01:18;2.40;99.90
19437;DHT22;9854;50.968;4.168;2024-01-15T09:03:44;2.50;99.90
19437;DHT22;9854;50.968;4.168;2024-01-15T09:06:12;2.50;99.90
19437;DHT22;9854;50.968;4.168;2024-01-15T09:08:37;2.50;99.90
19437;DHT22;9854;50.968;4.168;2024-01-15T09:11:03;2.50;99.90
19437;DHT22;9854;50.968;4.168;2024-01-15T09:13:31;2.60;99.90
19437;DHT22;9854;50.968;4.168;2024-01-15T09:16:00;2.60;99.90
19437;DHT22;9854;50.968;4.168;2024-01-15T09:18:28;2.70;99.90
19437;DHT22;9854;50.968;4.168;2024-01-15T09:20:55;2.80;99.90
19437;DHT22;9854;50.968;4.168;2024-01-15T09:23:22;2.80;99.90
19437;DHT22;9854;50.968;4.168;2024-01-15T09:25:48;2.90;99.90
19437;DHT22;9854;50.968;4.168;2024-01-15T09:28:18;2.90;99.90
19437;DHT22;9854;50.968;4.168;2024-01-15T09:30:43;2.90;99.90
19437;DHT22;9854;50.968;4.168;2024-01-15T09:33:10;3.00;99.90
19437;DHT22;9854;50.968;4.168;2024-01-15T09:35:36;3.00;99.90
19437;DHT22;9854;50.968;4.168;2024-01-15T09:38:02;3.10;99.90
19437;DHT22;9854;50.968;4.168;2024-01-15T09:40:31;3.20;99.90
19437;DHT22;9854;50.968;4.168;2024-01-15T09:42:58;3.10;99.90
19437;DHT22;9854;50.968;4.168;2024-01-15T09:45:24;3.20;99.90
19437;DHT22;9854;50.968;4.168;2024-01-15T09:47:50;3.20;99.90
19437;DHT22;9854;50.968;4.168;2024-01-15T09:50:15;3.20;99.90
19437;DHT22;9854;50.968;4.168;2024-01-15T09:52:43;3.20;99.90
19437;DHT22;9854;50.968;4.168;2024-01-15T09:55:09;3.30;99.90
19437;DHT22;9854;50.968;4.168;2024-01-15T09:57:35;3.30;99.90
19437;DHT22;9854;50.968;4.168;2024-01-15T10:00:02;3.30;99.90
19437;DHT22;9854;50.968;4.168;2024-01-15T10:02:29;3.30;99.90
19437;DHT22;9854;50.968;4.168;2024-01-15T10:04:56;3.40;99.90
19437;DHT22;9854;50.968;4.168;2024-01-15T10:07:26;3.50;99.90
19437;DHT22;9854;50.968;4.168;2024-01-15T10:09:53;3.50;99.90
19437;DHT22;9854;50.968;4.168;2024-01-15T10:12:20;3.70;99.90
19437;DHT22;9854;50.968;4.168;2024-01-15T10:14:54;3.80;99.90
19437;DHT22;9854;50.968;4.168;2024-01-15T10:17:21;3.80;99.90
19437;DHT22;9854;50.968;4.168;2024-01-15T10:19:47;3.80;99.90
19437;DHT22;9854;50.968;4.168;2024-01-15T10:22:19;3.70;99.90
19437;DHT22;9854;50.968;4.168;2024-01-15T10:24:45;3.70;99.90
19437;DHT22;9854;50.968;4.168;2024-01-15T10:27:13;3.80;99.90
19437;DHT22;9854;50.968;4.168;2024-01-15T10:29:41;3.90;99.90
19437;DHT22;9854;50.968;4.168;2024-01-15T10:32:08;3.90;99.90
19437;DHT22;9854;50.968;4.168;2024-01-15T10:34:40;4.00;99.90
19437;DHT22;9854;50.968;4.168;2024-01-15T10:37:12;4.00;99.90
19437;DHT22;9854;50.968;4.168;2024-01-15T10:39:40;4.00;99.90
19437;DHT22;9854;50.968;4.168;2024-01-15T10:42:08;3.90;99.90
19437;DHT22;9854;50.968;4.168;2024-01-15T10:44:37;4.00;99.90
19437;DHT22;9854;50.968;4.168;2024-01-15T10:47:04;4.10;99.90
19437;DHT22;9854;50.968;4.168;2024-01-15T10:49:31;4.10;99.90
19437;DHT22;9854;50.968;4.168;2024-01-15T10:52:00;4.10;99.90
19437;DHT22;9854;50.968;4.168;2024-01-15T10:54:27;4.00;99.90
19437;DHT22;9854;50.968;4.168;2024-01-15T10:56:56;4.00;99.90
19437;DHT22;9854;50.968;4.168;2024-01-15T10:59:22;4.10;99.90
19437;DHT22;9854;50.968;4.168;2024-01-15T11:01:49;4.00;99.90
19437;DHT22;9854;50.968;4.168;2024-01-15T11:04:15;4.00;99.90
19437;DHT22;9854;50.968;4.168;2024-01-15T11:06:47;3.90;99.90
19437;DHT22;9854;50.968;4.168;2024-01-15T11:09:13;3.90;99.90
19437;DHT22;9854;50.968;4.168;2024-01-15T11:11:47;4.00;99.90
19437;DHT22;9854;50.968;4.168;2024-01-15T11:17:00;4.10;99.90
19437;DHT22;9854;50.968;4.168;2024-01-15T11:19:38;4.20;99.90
19437;DHT22;9854;50.968;4.168;2024-01-15T11:22:10;4.10;99.90
19437;DHT22;9854;50.968;4.168;2024-01-15T11:24:56;4.20;99.90
19437;DHT22;9854;50.968;4.168;2024-01-15T11:27:44;4.40;99.90
19437;DHT22;9854;50.968;4.168;2024-01-15T11:30:13;4.20;99.90
19437;DHT22;9854;50.968;4.168;2024-01-15T11:32:39;4.20;99.90
19437;DHT22;9854;50.968;4.168;2024-01-15T11:35:07;4.30;99.90
19437;DHT22;9854;50.968;4.168;2024-01-15T11:37:57;4.30;99.90
19437;DHT22;9854;50.968;4.168;2024-01-15T11:42:59;4.40;99.90
19437;DHT22;9854;50.968;4.168;2024-01-15T11:45:25;4.30;99.90
19437;DHT22;9854;50.968;4.168;2024-01-15T11:50:36;4.50;99.90
19437;DHT22;9854;50.968;4.168;2024-01-15T11:53:13;4.40;99.90
19437;DHT22;9854;50.968;4.168;2024-01-15T11:55:44;4.30;99.90
19437;DHT22;9854;50.968;4.168;2024-01-15T11:58:14;4.30;99.90
19437;DHT22;9854;50.968;4.168;2024-01-15T12:00:48;4.40;99.90
19437;DHT22;9854;50.968;4.168;2024-01-15T12:03:20;4.50;99.90
19437;DHT22;9854;50.968;4.168;2024-01-15T12:05:45;4.70;99.90
19437;DHT22;9854;50.968;4.168;2024-01-15T12:08:11;4.70;99.90
19437;DHT22;9854;50.968;4.168;2024-01-15T12:10:43;4.90;99.90
19437;DHT22;9854;50.968;4.168;2024-01-15T12:13:15;4.80;99.90
19437;DHT22;9854;50.968;4.168;2024-01-15T12:15:42;4.80;99.90
19437;DHT22;9854;50.968;4.168;2024-01-15T12:18:17;4.70;99.90
19437;DHT22;9854;50.968;4.168;2024-01-15T12:20:44;4.70;99.90
19437;DHT22;9854;50.968;4.168;2024-01-15T12:23:12;4.70;99.90
19437;DHT22;9854;50.968;4.168;2024-01-15T12:25:39;4.60;99.90
19437;DHT22;9854;50.968;4.168;2024-01-15T12:28:05;4.50;99.90
19437;DHT22;9854;50.968;4.168;2024-01-15T12:30:33;4.10;99.90
19437;DHT22;9854;50.968;4.168;2024-01-15T12:33:07;4.00;99.90
19437;DHT22;9854;50.968;4.168;2024-01-15T12:35:37;3.90;99.90
19437;DHT22;9854;50.968;4.168;2024-01-15T12:38:03;3.90;99.90
19437;DHT22;9854;50.968;4.168;2024-01-15T12:40:29;3.90;99.90
19437;DHT22;9854;50.968;4.168;2024-01-15T12:42:55;3.90;99.90
19437;DHT22;9854;50.968;4.168;2024-01-15T12:45:21;3.80;99.90
19437;DHT22;9854;50.968;4.168;2024-01-15T12:47:46;3.80;99.90
19437;DHT22;9854;50.968;4.168;2024-01-15T12:50:13;3.70;99.90
19437;DHT22;9854;50.968;4.168;2024-01-15T12:52:41;3.30;99.90
19437;DHT22;9854;50.968;4.168;2024-01-15T12:55:12;3.10;99.90
19437;DHT22;9854;50.968;4.168;2024-01-15T12:57:38;3.00;99.90
19437;DHT22;9854;50.968;4.168;2024-01-15T13:00:04;3.00;99.90
19437;DHT22;9854;50.968;4.168;2024-01-15T13:02:39;3.00;99.90
19437;DHT22;9854;50.968;4.168;2024-01-15T13:05:08;3.20;99.90
19437;DHT22;9854;50.968;4.168;2024-01-15T13:07:34;3.30;99.90
19437;DHT22;9854;50.968;4.168;2024-01-15T13:10:00;3.50;99.90
19437;DHT22;9854;50.968;4.168;2024-01-15T13:12:26;3.70;99.90
19437;DHT22;9854;50.968;4.168;2024-01-15T13:14:51;3.80;99.90
19437;DHT22;9854;50.968;4.168;2024-01-15T13:17:17;3.90;99.90
19437;DHT22;9854;50.968;4.168;2024-01-15T13:19:45;3.90;99.90
19437;DHT22;9854;50.968;4.168;2024-01-15T13:22:10;3.90;99.90
19437;DHT22;9854;50.968;4.168;2024-01-15T13:24:39;3.90;99.90
19437;DHT22;9854;50.968;4.168;2024-01-15T13:27:07;4.00;99.90
19437;DHT22;9854;50.968;4.168;2024-01-15T13:29:38;4.10;99.90
19437;DHT22;9854;50.968;4.168;2024-01-15T13:32:04;4.20;99.90
19437;DHT22;9854;50.968;4.168;2024-01-15T13:34:30;4.30;99.90
19437;DHT22;9854;50.968;4.168;2024-01-15T13:36:56;4.40;99.90
19437;DHT22;9854;50.968;4.168;2024-01-15T13:39:22;4.40;99.90
19437;DHT22;9854;50.968;4.168;2024-01-15T13:41:49;4.40;99.90
19437;DHT22;9854;50.968;4.168;2024-01-15T13:44:15;4.20;99.90
19437;DHT22;9854;50.968;4.168;2024-01-15T13:46:40;4.10;99.90
19437;DHT22;9854;50.968;4.168;2024-01-15T13:49:07;4.00;99.90
19437;DHT22;9854;50.968;4.168;2024-01-15T13:51:34;3.80;99.90
19437;DHT22;9854;50.968;4.168;2024-01-15T13:54:01;3.80;99.90
19437;DHT22;9854;50.968;4.168;2024-01-15T13:56:26;3.70;99.90
19437;DHT22;9854;50.968;4.168;2024-01-15T13:58:56;3.80;99.90
19437;DHT22;9854;50.968;4.168;2024-01-15T14:01:25;3.90;99.90
19437;DHT22;9854;50.968;4.168;2024-01-15T14:03:51;4.00;99.90
19437;DHT22;9854;50.968;4.168;2024-01-15T14:06:19;4.00;99.90
19437;DHT22;9854;50.968;4.168;2024-01-15T14:08:44;4.00;99.90
19437;DHT22;9854;50.968;4.168;2024-01-15T14:11:12;4.00;99.90
19437;DHT22;9854;50.968;4.168;2024-01-15T14:13:40;3.80;99.90
19437;DHT22;9854;50.968;4.168;2024-01-15T14:16:08;3.70;99.90
19437;DHT22;9854;50.968;4.168;2024-01-15T14:18:35;3.50;99.90
19437;DHT22;9854;50.968;4.168;2024-01-15T14:21:00;3.10;99.90
19437;DHT22;9854;50.968;4.168;2024-01-15T14:23:28;2.60;99.90
19437;DHT22;9854;50.968;4.168;2024-01-15T14:25:56;2.30;99.90
19437;DHT22;9854;50.968;4.168;2024-01-15T14:28:22;2.20;99.90
19437;DHT22;9854;50.968;4.168;2024-01-15T14:30:48;2.20;99.90
19437;DHT22;9854;50.968;4.168;2024-01-15T14:33:14;2.20;99.90
19437;DHT22;9854;50.968;4.168;2024-01-15T14:35:40;2.20;99.90
19437;DHT22;9854;50.968;4.168;2024-01-15T14:38:05;2.20;99.90
19437;DHT22;9854;50.968;4.168;2024-01-15T14:40:33;2.20;99.90
19437;DHT22;9854;50.968;4.168;2024-01-15T14:42:59;2.20;99.90
19437;DHT22;9854;50.968;4.168;2024-01-15T14:45:27;2.20;99.90
19437;DHT22;9854;50.968;4.168;2024-01-15T14:47:53;2.20;99.90
19437;DHT22;9854;50.968;4.168;2024-01-15T14:50:21;2.30;99.90
19437;DHT22;9854;50.968;4.168;2024-01-15T14:52:47;2.20;99.90
19437;DHT22;9854;50.968;4.168;2024-01-15T14:55:12;2.20;99.90
19437;DHT22;9854;50.968;4.168;2024-01-15T14:57:41;2.20;99.90
19437;DHT22;9854;50.968;4.168;2024-01-15T15:00:07;2.20;99.90
19437;DHT22;9854;50.968;4.168;2024-01-15T15:02:35;2.10;99.90
19437;DHT22;9854;50.968;4.168;2024-01-15T15:05:03;2.10;99.90
19437;DHT22;9854;50.968;4.168;2024-01-15T15:07:31;2.20;99.90
19437;DHT22;9854;50.968;4.168;2024-01-15T15:09:57;2.30;99.90
19437;DHT22;9854;50.968;4.168;2024-01-15T15:12:23;2.40;99.90
19437;DHT22;9854;50.968;4.168;2024-01-15T15:14:51;2.60;99.90
19437;DHT22;9854;50.968;4.168;2024-01-15T15:17:19;2.60;99.90
19437;DHT22;9854;50.968;4.168;2024-01-15T15:19:44;2.70;99.90
19437;DHT22;9854;50.968;4.168;2024-01-15T15:22:10;2.60;99.90
19437;DHT22;9854;50.968;4.168;2024-01-15T15:24:39;2.60;99.90
19437;DHT22;9854;50.968;4.168;2024-01-15T15:27:07;2.50;99.90
19437;DHT22;9854;50.968;4.168;2024-01-15T15:29:33;2.50;99.90
19437;DHT22;9854;50.968;4.168;2024-01-15T15:32:01;2.40;99.90
19437;DHT22;9854;50.968;4.168;2024-01-15T15:34:28;2.40;99.90
19437;DHT22;9854;50.968;4.168;2024-01-15T15:36:53;2.30;99.90
19437;DHT22;9854;50.968;4.168;2024-01-15T15:39:21;2.30;99.90
19437;DHT22;9854;50.968;4.168;2024-01-15T15:41:47;2.30;99.90
19437;DHT22;9854;50.968;4.168;2024-01-15T15:44:14;2.30;99.90
19437;DHT22;9854;50.968;4.168;2024-01-15T15:46:42;2.30;99.90
19437;DHT22;9854;50.968;4.168;2024-01-15T15:49:08;2.30;99.90
19437;DHT22;9854;50.968;4.168;2024-01-15T15:51:33;2.30;99.90
19437;DHT22;9854;50.968;4.168;2024-01-15T15:54:03;2.30;99.90
19437;DHT22;9854;50.968;4.168;2024-01-15T15:56:35;2.40;99.90
19437;DHT22;9854;50.968;4.168;2024-01-15T15:59:04;2.40;99.90
19437;DHT22;9854;50.968;4.168;2024-01-15T16:01:33;2.40;99.90
19437;DHT22;9854;50.968;4.168;2024-01-15T16:03:59;2.40;99.90
19437;DHT22;9854;50.968;4.168;2024-01-15T16:06:25;2.40;99.90
19437;DHT22;9854;50.968;4.168;2024-01-15T16:08:52;2.40;99.90